createdAt,value
2018-01-13T00:02:21.693Z,1.12
2018-01-13T00:04:47.720Z,1.27
2018-01-13T00:07:13.784Z,1.09
2018-01-13T00:09:39.772Z,1.01
2018-01-13T00:12:05.804Z,0.93
2018-01-13T00:14:31.816Z,0.82
2018-01-13T00:16:57.836Z,0.74
2018-01-13T00:19:23.863Z,0.87
2018-01-13T00:21:49.844Z,0.91
2018-01-13T00:24:15.869Z,0.96
2018-01-13T00:26:41.997Z,0.94
2018-01-13T00:29:07.988Z,0.95
2018-01-13T00:31:34.020Z,0.84
2018-01-13T00:34:00.500Z,0.89
2018-01-13T00:36:26.592Z,0.86
2018-01-13T00:38:52.584Z,1.03
2018-01-13T00:41:18.584Z,1.11
2018-01-13T00:43:44.640Z,1.17
2018-01-13T00:46:10.641Z,1.08
2018-01-13T00:48:36.672Z,1.15
2018-01-13T00:51:02.712Z,1.16
2018-01-13T00:53:28.743Z,1.10
2018-01-13T00:55:54.780Z,1.15
2018-01-13T00:58:20.812Z,1.24
2018-01-13T01:00:46.809Z,1.26
2018-01-13T01:03:12.808Z,1.24
2018-01-13T01:05:38.893Z,1.31
2018-01-13T01:08:04.904Z,1.32
2018-01-13T01:10:30.876Z,1.37
2018-01-13T01:12:56.933Z,1.36
2018-01-13T01:15:22.924Z,1.31
2018-01-13T01:17:48.924Z,1.29
2018-01-13T01:20:14.969Z,1.32
2018-01-13T01:22:40.937Z,1.34
2018-01-13T01:25:06.934Z,1.37
2018-01-13T01:27:32.931Z,1.36
2018-01-13T01:29:58.948Z,1.39
2018-01-13T01:32:24.941Z,1.37
2018-01-13T01:34:50.972Z,1.36
2018-01-13T01:37:17.013Z,1.28
2018-01-13T01:39:42.999Z,1.35
2018-01-13T01:42:09.089Z,1.32
2018-01-13T01:44:35.116Z,1.43
2018-01-13T01:47:01.103Z,1.48
2018-01-13T01:49:27.176Z,1.53
2018-01-13T01:51:53.205Z,1.48
2018-01-13T01:54:19.248Z,1.41
2018-01-13T01:56:45.308Z,1.43
2018-01-13T01:59:11.328Z,1.42
2018-01-13T02:01:37.324Z,1.30
2018-01-13T02:04:03.380Z,1.26
2018-01-13T02:06:29.681Z,1.35
2018-01-13T02:08:55.680Z,1.40
2018-01-13T02:11:21.699Z,1.43
2018-01-13T02:13:47.748Z,1.40
2018-01-13T02:16:13.808Z,1.41
2018-01-13T02:18:39.845Z,1.47
2018-01-13T02:21:05.853Z,1.47
2018-01-13T02:23:31.847Z,1.48
2018-01-13T02:25:57.901Z,1.51
2018-01-13T02:28:23.953Z,1.59
2018-01-13T02:30:49.996Z,1.60
2018-01-13T02:33:16.004Z,1.61
2018-01-13T02:35:42.048Z,1.63
2018-01-13T02:38:08.112Z,1.79
2018-01-13T02:40:34.133Z,1.75
2018-01-13T02:43:00.185Z,1.70
2018-01-13T02:45:26.189Z,1.69
2018-01-13T02:47:52.193Z,1.69
2018-01-13T02:50:18.188Z,1.70
2018-01-13T02:52:44.194Z,1.66
2018-01-13T02:55:10.237Z,1.65
2018-01-13T02:57:36.264Z,1.57
2018-01-13T03:00:03.219Z,1.58
2018-01-13T03:02:29.243Z,1.53
2018-01-13T03:04:55.273Z,1.62
2018-01-13T03:07:21.396Z,1.66
2018-01-13T03:09:47.805Z,1.63
2018-01-13T03:12:13.869Z,1.66
2018-01-13T03:14:39.912Z,1.77
2018-01-13T03:17:05.933Z,1.75
2018-01-13T03:19:31.915Z,1.71
2018-01-13T03:21:57.945Z,1.62
2018-01-13T03:24:24.027Z,1.61
2018-01-13T03:26:50.176Z,1.65
2018-01-13T03:29:16.236Z,1.70
2018-01-13T03:31:42.264Z,1.74
2018-01-13T03:34:08.318Z,1.70
2018-01-13T03:36:34.339Z,1.71
2018-01-13T03:39:00.337Z,1.84
2018-01-13T03:41:26.633Z,1.79
2018-01-13T03:43:52.675Z,1.74
2018-01-13T03:46:18.693Z,1.73
2018-01-13T03:48:44.727Z,1.73
2018-01-13T03:51:10.732Z,1.71
2018-01-13T03:53:36.787Z,1.67
2018-01-13T03:56:02.896Z,1.66
2018-01-13T03:58:28.907Z,1.71
2018-01-13T04:00:54.956Z,1.65
2018-01-13T04:03:21.016Z,1.67
2018-01-13T04:05:47.028Z,1.69
2018-01-13T04:08:13.056Z,1.77
2018-01-13T04:10:39.073Z,1.82
2018-01-13T04:13:05.148Z,1.85
2018-01-13T04:15:31.148Z,1.89
2018-01-13T04:17:57.152Z,1.85
2018-01-13T04:20:23.176Z,1.87
2018-01-13T04:22:49.280Z,1.87
2018-01-13T04:25:15.301Z,1.87
2018-01-13T04:27:41.543Z,1.90
2018-01-13T04:30:07.556Z,1.91
2018-01-13T04:32:33.604Z,1.90
2018-01-13T04:34:59.620Z,1.90
2018-01-13T04:37:25.576Z,1.92
2018-01-13T04:39:51.727Z,1.95
2018-01-13T04:42:17.732Z,1.97
2018-01-13T04:44:43.739Z,1.98
2018-01-13T04:47:10.176Z,2.02
2018-01-13T04:49:36.211Z,2.04
2018-01-13T04:52:02.246Z,2.01
2018-01-13T04:54:28.548Z,2.01
2018-01-13T04:56:54.632Z,1.97
2018-01-13T04:59:20.744Z,1.99
2018-01-13T05:01:46.771Z,2.01
2018-01-13T05:04:12.768Z,2.01
2018-01-13T05:06:38.784Z,2.03
2018-01-13T05:09:04.908Z,2.06
2018-01-13T05:11:30.944Z,2.07
2018-01-13T05:13:56.924Z,2.14
2018-01-13T05:16:22.964Z,2.16
2018-01-13T05:18:49.055Z,2.18
2018-01-13T05:21:15.079Z,2.21
2018-01-13T05:23:41.124Z,2.24
2018-01-13T05:26:07.147Z,2.29
2018-01-13T05:28:33.157Z,2.36
2018-01-13T05:30:59.137Z,2.33
2018-01-13T05:33:25.125Z,2.35
2018-01-13T05:35:51.072Z,2.37
2018-01-13T05:38:17.105Z,2.43
2018-01-13T05:40:43.160Z,2.40
2018-01-13T05:43:09.572Z,2.43
2018-01-13T05:45:35.649Z,2.42
2018-01-13T05:48:01.742Z,2.48
2018-01-13T05:50:27.854Z,2.52
2018-01-13T05:52:53.887Z,2.58
2018-01-13T05:55:19.931Z,2.60
2018-01-13T05:57:45.913Z,2.57
2018-01-13T06:00:11.963Z,2.71
2018-01-13T06:02:37.997Z,2.64
2018-01-13T06:05:04.116Z,2.59
2018-01-13T06:07:30.151Z,2.64
2018-01-13T06:09:56.171Z,2.65
2018-01-13T06:12:22.176Z,2.66
2018-01-13T06:14:48.312Z,2.72
2018-01-13T06:17:14.286Z,2.71
2018-01-13T06:19:40.296Z,2.67
2018-01-13T06:22:06.330Z,2.65
2018-01-13T06:24:32.359Z,2.64
2018-01-13T06:26:58.386Z,2.66
2018-01-13T06:29:24.396Z,2.64
2018-01-13T06:31:50.381Z,2.65
2018-01-13T06:34:16.436Z,2.62
2018-01-13T06:36:42.444Z,2.61
2018-01-13T06:39:08.869Z,2.58
2018-01-13T06:41:34.889Z,2.55
2018-01-13T06:44:00.927Z,2.63
2018-01-13T06:46:26.975Z,2.65
2018-01-13T06:48:52.992Z,2.59
2018-01-13T06:51:19.007Z,2.62
2018-01-13T06:53:45.084Z,2.65
2018-01-13T06:56:11.135Z,2.60
2018-01-13T06:58:37.168Z,2.60
2018-01-13T07:01:03.151Z,2.58
2018-01-13T07:03:29.188Z,2.62
2018-01-13T07:05:55.215Z,2.59
2018-01-13T07:08:21.232Z,2.60
2018-01-13T07:10:47.232Z,2.60
2018-01-13T07:13:13.290Z,2.62
2018-01-13T07:15:39.289Z,2.62
2018-01-13T07:18:05.316Z,2.68
2018-01-13T07:20:31.372Z,2.68
2018-01-13T07:22:57.480Z,2.68
2018-01-13T07:25:23.528Z,2.66
2018-01-13T07:27:49.544Z,2.64
2018-01-13T07:30:15.549Z,2.70
2018-01-13T07:32:41.577Z,2.68
2018-01-13T07:35:07.604Z,2.66
2018-01-13T07:37:33.680Z,2.65
2018-01-13T07:39:59.693Z,2.69
2018-01-13T07:42:25.652Z,2.67
2018-01-13T07:44:51.636Z,2.68
2018-01-13T07:47:17.702Z,2.69
2018-01-13T07:49:43.692Z,2.69
2018-01-13T07:52:09.715Z,2.68
2018-01-13T07:54:35.778Z,2.66
2018-01-13T07:57:01.816Z,2.67
2018-01-13T07:59:27.841Z,2.70
2018-01-13T08:01:53.860Z,2.68
2018-01-13T08:04:19.889Z,2.70
2018-01-13T08:06:46.297Z,2.69
2018-01-13T08:09:12.319Z,2.72
2018-01-13T08:11:38.389Z,2.70
2018-01-13T08:14:04.443Z,2.71
2018-01-13T08:16:30.527Z,2.73
2018-01-13T08:18:56.540Z,2.73
2018-01-13T08:21:22.604Z,2.73
2018-01-13T08:23:48.663Z,2.72
2018-01-13T08:26:14.649Z,2.74
2018-01-13T08:28:40.686Z,2.79
2018-01-13T08:31:06.736Z,2.76
2018-01-13T08:33:32.802Z,2.76
2018-01-13T08:35:58.857Z,2.81
2018-01-13T08:38:24.876Z,2.77
2018-01-13T08:40:51.036Z,2.79
2018-01-13T08:43:17.036Z,2.79
2018-01-13T08:45:43.076Z,2.79
2018-01-13T08:48:09.161Z,2.82
2018-01-13T08:50:35.147Z,2.77
2018-01-13T08:53:01.971Z,2.73
2018-01-13T08:55:28.045Z,2.75
2018-01-13T08:57:54.128Z,2.77
2018-01-13T09:00:20.239Z,2.75
2018-01-13T09:02:46.312Z,2.80
2018-01-13T09:05:12.380Z,2.87
2018-01-13T09:07:38.423Z,2.92
2018-01-13T09:10:04.483Z,2.85
2018-01-13T09:12:30.566Z,2.81
2018-01-13T09:14:56.556Z,2.79
2018-01-13T09:17:22.577Z,2.80
2018-01-13T09:19:48.608Z,2.86
2018-01-13T09:22:14.637Z,2.81
2018-01-13T09:24:40.680Z,2.78
2018-01-13T09:27:06.749Z,2.78
2018-01-13T09:29:32.692Z,2.75
2018-01-13T09:31:58.676Z,2.77
2018-01-13T09:34:24.697Z,2.78
2018-01-13T09:36:50.755Z,2.75
2018-01-13T09:39:16.788Z,2.78
2018-01-13T09:41:42.837Z,2.74
2018-01-13T09:44:09.245Z,2.74
2018-01-13T09:46:35.275Z,2.74
2018-01-13T09:49:01.365Z,2.73
2018-01-13T09:51:27.400Z,2.66
2018-01-13T09:53:53.369Z,2.66
2018-01-13T09:56:19.436Z,2.65
2018-01-13T09:58:45.440Z,2.63
2018-01-13T10:01:11.439Z,2.62
2018-01-13T10:03:37.471Z,2.71
2018-01-13T10:06:03.541Z,2.56
2018-01-13T10:08:29.493Z,2.51
2018-01-13T10:10:55.496Z,2.54
2018-01-13T10:13:21.526Z,2.51
2018-01-13T10:15:47.536Z,2.50
2018-01-13T10:18:13.572Z,2.64
2018-01-13T10:20:39.613Z,2.64
2018-01-13T10:23:05.608Z,2.60
2018-01-13T10:25:31.616Z,2.49
2018-01-13T10:27:57.588Z,2.59
2018-01-13T10:30:23.668Z,2.50
2018-01-13T10:32:49.743Z,2.52
2018-01-13T10:35:15.763Z,2.52
2018-01-13T10:37:41.756Z,2.53
2018-01-13T10:40:07.848Z,2.60
2018-01-13T10:42:33.857Z,2.62
2018-01-13T10:44:59.877Z,2.68
2018-01-13T10:47:25.974Z,2.62
2018-01-13T10:49:52.068Z,2.56
2018-01-13T10:52:18.069Z,2.54
2018-01-13T10:54:44.111Z,2.62
2018-01-13T10:57:10.180Z,2.61
2018-01-13T10:59:36.216Z,2.65
2018-01-13T11:02:02.265Z,2.66
2018-01-13T11:04:28.282Z,2.66
2018-01-13T11:06:54.357Z,2.64
2018-01-13T11:09:20.398Z,2.63
2018-01-13T11:11:46.389Z,2.63
2018-01-13T11:14:12.404Z,2.65
2018-01-13T11:16:38.428Z,2.64
2018-01-13T11:19:04.492Z,2.65
2018-01-13T11:21:30.502Z,2.70
2018-01-13T11:23:56.530Z,2.65
2018-01-13T11:26:22.584Z,2.70
2018-01-13T11:28:48.596Z,2.72
2018-01-13T11:31:14.671Z,2.66
2018-01-13T11:33:40.697Z,2.69
2018-01-13T11:36:06.776Z,2.68
2018-01-13T11:38:32.751Z,2.68
2018-01-13T11:40:58.748Z,2.71
2018-01-13T11:43:24.808Z,2.72
2018-01-13T11:45:50.816Z,2.71
2018-01-13T11:48:16.845Z,2.76
2018-01-13T11:50:42.901Z,2.79
2018-01-13T11:53:08.925Z,2.79
2018-01-13T11:55:35.093Z,2.80
2018-01-13T11:58:01.238Z,2.86
2018-01-13T12:00:27.402Z,2.85
2018-01-13T12:02:53.484Z,2.80
2018-01-13T12:05:19.545Z,2.84
2018-01-13T12:07:45.538Z,2.88
2018-01-13T12:10:16.128Z,2.84
2018-01-13T12:12:42.173Z,2.88
2018-01-13T12:15:08.231Z,2.85
2018-01-13T12:17:34.356Z,2.88
2018-01-13T12:20:00.321Z,2.90
2018-01-13T12:22:26.891Z,2.90
2018-01-13T12:24:52.937Z,2.90
2018-01-13T12:27:19.003Z,2.83
2018-01-13T12:29:45.149Z,2.84
2018-01-13T12:32:11.280Z,2.80
2018-01-13T12:34:37.465Z,2.92
2018-01-13T12:37:03.531Z,2.89
2018-01-13T12:39:29.588Z,2.58
2018-01-13T12:41:55.628Z,2.74
2018-01-13T12:44:21.661Z,2.73
2018-01-13T12:46:47.720Z,2.76
2018-01-13T12:49:13.765Z,2.75
2018-01-13T12:51:39.825Z,2.65
2018-01-13T12:54:05.878Z,2.71
2018-01-13T12:56:32.065Z,2.65
2018-01-13T12:58:58.177Z,2.64
2018-01-13T13:01:24.211Z,2.65
2018-01-13T13:03:50.260Z,2.62
2018-01-13T13:06:16.305Z,2.64
2018-01-13T13:08:42.993Z,2.57
2018-01-13T13:11:09.008Z,2.60
2018-01-13T13:13:35.052Z,2.58
2018-01-13T13:16:01.428Z,2.62
2018-01-13T13:18:27.875Z,2.59
2018-01-13T13:20:53.892Z,2.56
2018-01-13T13:23:19.957Z,2.58
2018-01-13T13:25:45.956Z,2.55
2018-01-13T13:28:12.076Z,2.59
2018-01-13T13:30:38.097Z,2.51
2018-01-13T13:33:04.099Z,2.52
2018-01-13T13:35:30.147Z,2.47
2018-01-13T13:37:56.126Z,2.56
2018-01-13T13:40:22.168Z,2.51
2018-01-13T13:42:48.224Z,2.41
2018-01-13T13:45:14.300Z,2.46
2018-01-13T13:47:40.297Z,2.42
2018-01-13T13:50:06.359Z,2.37
2018-01-13T13:52:32.365Z,2.25
2018-01-13T13:54:58.394Z,2.27
2018-01-13T13:57:24.538Z,2.29
2018-01-13T13:59:50.632Z,2.19
2018-01-13T14:02:16.624Z,2.21
2018-01-13T14:04:42.709Z,2.22
2018-01-13T14:07:08.767Z,2.22
2018-01-13T14:09:34.877Z,2.21
2018-01-13T14:12:00.974Z,2.24
2018-01-13T14:14:27.046Z,2.35
2018-01-13T14:16:53.190Z,2.36
2018-01-13T14:19:19.505Z,2.41
2018-01-13T14:21:45.476Z,2.23
2018-01-13T14:24:11.542Z,2.14
2018-01-13T14:26:37.593Z,2.17
2018-01-13T14:29:03.624Z,2.28
2018-01-13T14:31:30.065Z,2.32
2018-01-13T14:33:56.138Z,2.20
2018-01-13T14:36:22.224Z,2.12
2018-01-13T14:38:48.294Z,2.12
2018-01-13T14:41:14.433Z,2.21
2018-01-13T14:43:40.489Z,2.22
2018-01-13T14:46:06.552Z,2.21
2018-01-13T14:48:32.581Z,2.14
2018-01-13T14:50:58.696Z,2.31
2018-01-13T14:53:24.704Z,2.25
2018-01-13T14:55:50.752Z,2.18
2018-01-13T14:58:16.761Z,2.20
2018-01-13T15:00:43.360Z,2.16
2018-01-13T15:03:09.343Z,2.05
2018-01-13T15:05:35.364Z,2.07
2018-01-13T15:08:01.428Z,2.00
2018-01-13T15:10:27.432Z,1.90
2018-01-13T15:12:53.474Z,1.89
2018-01-13T15:15:27.264Z,1.87
2018-01-13T15:17:53.336Z,1.77
2018-01-13T15:20:19.316Z,1.77
2018-01-13T15:22:45.374Z,1.76
2018-01-13T15:25:11.388Z,1.75
2018-01-13T15:27:37.548Z,1.72
2018-01-13T15:30:03.748Z,1.73
2018-01-13T15:32:29.753Z,1.84
2018-01-13T15:34:55.844Z,1.87
2018-01-13T15:37:21.860Z,1.80
2018-01-13T15:39:47.888Z,1.78
2018-01-13T15:42:14.059Z,1.76
2018-01-13T15:44:40.126Z,1.62
2018-01-13T15:47:06.180Z,1.58
2018-01-13T15:49:32.220Z,1.48
2018-01-13T15:52:04.364Z,1.55
2018-01-13T15:54:30.642Z,1.55
2018-01-13T15:56:56.804Z,1.53
2018-01-13T15:59:23.530Z,1.50
2018-01-13T16:01:49.568Z,1.52
2018-01-13T16:04:15.624Z,1.55
2018-01-13T16:06:41.702Z,1.45
2018-01-13T16:09:07.772Z,1.43
2018-01-13T16:11:33.862Z,1.51
2018-01-13T16:13:59.884Z,1.62
2018-01-13T16:16:25.972Z,1.51
2018-01-13T16:18:52.058Z,1.47
2018-01-13T16:21:18.094Z,1.50
2018-01-13T16:23:44.144Z,1.42
2018-01-13T16:26:10.249Z,1.44
2018-01-13T16:28:36.341Z,1.47
2018-01-13T16:31:16.364Z,1.46
2018-01-13T16:33:42.410Z,1.47
2018-01-13T16:36:08.433Z,1.45
2018-01-13T16:38:34.579Z,1.44
2018-01-13T16:41:00.626Z,1.28
2018-01-13T16:43:26.684Z,1.37
2018-01-13T16:45:52.770Z,1.46
2018-01-13T16:48:18.776Z,1.37
2018-01-13T16:50:44.874Z,1.31
2018-01-13T16:53:10.885Z,1.13
2018-01-13T16:55:36.910Z,1.14
2018-01-13T16:58:02.957Z,1.22
2018-01-13T17:00:29.002Z,1.23
2018-01-13T17:02:55.014Z,1.41
2018-01-13T17:05:21.014Z,1.34
2018-01-13T17:07:47.106Z,1.32
2018-01-13T17:10:13.167Z,1.25
2018-01-13T17:12:39.229Z,1.18
2018-01-13T17:15:05.304Z,1.13
2018-01-13T17:17:31.309Z,1.22
2018-01-13T17:19:57.389Z,1.10
2018-01-13T17:22:23.557Z,0.89
2018-01-13T17:24:49.656Z,0.98
2018-01-13T17:27:15.670Z,0.95
2018-01-13T17:29:41.705Z,0.87
2018-01-13T17:32:07.737Z,0.97
2018-01-13T17:34:33.804Z,0.89
2018-01-13T17:36:59.897Z,0.87
2018-01-13T17:39:25.952Z,0.85
2018-01-13T17:41:52.016Z,0.86
2018-01-13T17:44:18.172Z,0.85
2018-01-13T17:46:44.190Z,0.72
2018-01-13T17:49:10.221Z,0.79
2018-01-13T17:51:36.262Z,0.66
2018-01-13T17:54:02.326Z,0.71
2018-01-13T17:56:28.440Z,0.55
2018-01-13T17:58:54.973Z,0.71
2018-01-13T18:01:21.052Z,0.60
2018-01-13T18:03:47.064Z,0.61
2018-01-13T18:06:13.088Z,0.48
2018-01-13T18:08:39.157Z,0.43
2018-01-13T18:11:05.181Z,0.50
2018-01-13T18:13:31.259Z,0.42
2018-01-13T18:15:57.245Z,0.37
2018-01-13T18:18:23.257Z,0.43
2018-01-13T18:20:49.249Z,0.33
2018-01-13T18:23:15.327Z,0.29
2018-01-13T18:25:41.344Z,0.28
2018-01-13T18:28:08.349Z,0.24
2018-01-13T18:30:34.404Z,0.26
2018-01-13T18:33:00.442Z,0.10
2018-01-13T18:35:26.491Z,0.06
2018-01-13T18:37:52.546Z,0.13
2018-01-13T18:40:18.577Z,0.16
2018-01-13T18:42:44.612Z,-0.01
2018-01-13T18:45:10.739Z,0.10
2018-01-13T18:47:36.764Z,0.11
2018-01-13T18:50:03.080Z,-0.01
2018-01-13T18:52:29.178Z,-0.03
2018-01-13T18:54:55.265Z,-0.05
2018-01-13T18:57:21.328Z,-0.05
2018-01-13T18:59:47.361Z,-0.08
2018-01-13T19:02:13.396Z,0.01
2018-01-13T19:04:39.432Z,0.00
2018-01-13T19:07:05.468Z,-0.01
2018-01-13T19:09:31.468Z,-0.10
2018-01-13T19:11:57.516Z,-0.11
2018-01-13T19:14:23.587Z,-0.07
2018-01-13T19:16:49.627Z,-0.09
2018-01-13T19:19:15.609Z,-0.19
2018-01-13T19:21:41.672Z,-0.25
2018-01-13T19:24:07.649Z,-0.22
2018-01-13T19:26:33.636Z,-0.08
2018-01-13T19:28:59.568Z,-0.18
2018-01-13T19:31:25.656Z,-0.28
2018-01-13T19:33:51.705Z,-0.29
2018-01-13T19:36:17.797Z,-0.29
2018-01-13T19:38:43.768Z,-0.31
2018-01-13T19:41:09.749Z,-0.32
2018-01-13T19:43:35.868Z,-0.30
2018-01-13T19:46:01.853Z,-0.29
2018-01-13T19:48:27.892Z,-0.29
2018-01-13T19:50:53.909Z,-0.30
2018-01-13T19:53:19.940Z,-0.38
2018-01-13T19:55:45.988Z,-0.33
2018-01-13T19:58:12.049Z,-0.34
2018-01-13T20:00:38.124Z,-0.25
2018-01-13T20:03:04.153Z,-0.29
2018-01-13T20:05:30.166Z,-0.24
2018-01-13T20:07:56.180Z,-0.22
2018-01-13T20:10:22.222Z,-0.23
2018-01-13T20:12:48.233Z,-0.33
2018-01-13T20:15:14.321Z,-0.25
2018-01-13T20:17:40.306Z,-0.26
2018-01-13T20:20:06.284Z,-0.21
2018-01-13T20:22:32.286Z,-0.28
2018-01-13T20:24:58.290Z,-0.21
2018-01-13T20:27:24.268Z,-0.18
2018-01-13T20:29:50.297Z,-0.15
2018-01-13T20:32:16.374Z,-0.12
2018-01-13T20:34:42.365Z,-0.16
2018-01-13T20:37:08.433Z,-0.05
2018-01-13T20:39:34.420Z,0.00
2018-01-13T20:42:00.457Z,0.07
2018-01-13T20:44:26.511Z,0.07
2018-01-13T20:46:52.501Z,-0.03
2018-01-13T20:49:18.414Z,-0.01
2018-01-13T20:51:44.496Z,0.02
2018-01-13T20:54:10.512Z,0.11
2018-01-13T20:56:36.469Z,0.05
2018-01-13T20:59:02.517Z,0.06
2018-01-13T21:01:28.564Z,-0.04
2018-01-13T21:03:54.619Z,0.01
2018-01-13T21:06:20.646Z,-0.02
2018-01-13T21:08:46.682Z,0.00
2018-01-13T21:11:12.812Z,0.01
2018-01-13T21:13:38.790Z,-0.02
2018-01-13T21:16:04.804Z,0.05
2018-01-13T21:18:30.852Z,-0.01
2018-01-13T21:20:56.885Z,-0.05
2018-01-13T21:23:22.901Z,0.02
2018-01-13T21:25:48.880Z,-0.03
2018-01-13T21:28:14.959Z,-0.03
2018-01-13T21:30:40.950Z,0.00
2018-01-13T21:33:06.976Z,0.02
2018-01-13T21:35:32.988Z,-0.10
2018-01-13T21:37:59.012Z,-0.12
2018-01-13T21:40:25.061Z,-0.12
2018-01-13T21:42:51.086Z,-0.02
2018-01-13T21:45:17.076Z,-0.09
2018-01-13T21:47:43.077Z,-0.04
2018-01-13T21:50:09.176Z,-0.07
2018-01-13T21:52:35.214Z,-0.20
2018-01-13T21:55:01.180Z,-0.05
2018-01-13T21:57:27.200Z,-0.05
2018-01-13T21:59:53.177Z,-0.16
2018-01-13T22:02:19.200Z,-0.03
2018-01-13T22:04:45.216Z,-0.08
2018-01-13T22:07:11.228Z,0.00
2018-01-13T22:09:37.256Z,-0.03
2018-01-13T22:12:03.313Z,-0.14
2018-01-13T22:14:29.313Z,-0.15
2018-01-13T22:16:55.322Z,-0.16
2018-01-13T22:19:21.341Z,-0.16
2018-01-13T22:21:47.336Z,-0.13
2018-01-13T22:24:13.440Z,-0.14
2018-01-13T22:26:39.400Z,-0.14
2018-01-13T22:29:05.429Z,-0.20
2018-01-13T22:31:31.461Z,-0.12
2018-01-13T22:33:57.484Z,-0.04
2018-01-13T22:36:23.546Z,-0.07
2018-01-13T22:38:49.548Z,-0.12
2018-01-13T22:41:15.595Z,-0.18
2018-01-13T22:43:41.640Z,-0.14
2018-01-13T22:46:07.674Z,-0.22
2018-01-13T22:48:33.696Z,-0.17
2018-01-13T22:50:59.705Z,-0.18
2018-01-13T22:53:25.715Z,-0.21
2018-01-13T22:55:51.736Z,-0.08
2018-01-13T22:58:17.757Z,-0.09
2018-01-13T23:00:50.033Z,-0.12
2018-01-13T23:03:16.055Z,-0.11
2018-01-13T23:05:42.040Z,-0.19
2018-01-13T23:08:08.090Z,-0.04
2018-01-13T23:10:34.143Z,-0.22
2018-01-13T23:13:00.181Z,-0.18
2018-01-13T23:15:26.184Z,-0.24
2018-01-13T23:17:52.206Z,-0.19
2018-01-13T23:20:18.334Z,-0.26
2018-01-13T23:22:44.369Z,-0.24
2018-01-13T23:25:10.480Z,-0.30
2018-01-13T23:27:36.526Z,-0.18
2018-01-13T23:30:02.668Z,-0.17
2018-01-13T23:32:28.713Z,-0.23
2018-01-13T23:34:54.752Z,-0.16
2018-01-13T23:37:20.786Z,-0.20
2018-01-13T23:39:46.830Z,-0.21
2018-01-13T23:42:12.869Z,-0.25
2018-01-13T23:44:38.839Z,-0.11
2018-01-13T23:47:04.906Z,-0.13
2018-01-13T23:49:30.920Z,-0.10
2018-01-13T23:51:57.012Z,-0.12
2018-01-13T23:54:23.041Z,-0.04
2018-01-13T23:56:49.015Z,-0.14
2018-01-13T23:59:15.117Z,-0.18
